EW6958 Weather Reports


time (UTC)temp
C
wind
direction
speed
KPH
gust
KPH
rain 1hr
cm
rain 24hr
cm
rain mn
cm
humidity
%
barometer
mb
20190426095019 11 278 9.7 11.3 0.00 0.10 0.08 88 1014.0
20190426094019 11 260 11.3 12.9 0.00 0.10 0.08 88 1014.0
20190426093020 10 270 8.0 16.1 0.00 0.10 0.08 88 1013.0
20190426092018 10 247 6.4 11.3 0.00 0.10 0.08 89 1013.0
20190426091016 10 243 1.6 4.8 0.00 0.10 0.08 89 1013.0
20190426090019 10 253 8.0 9.7 0.08 0.08 0.08 88 1013.0
20190426085018 10 273 8.0 9.7 0.10 0.10 0.08 88 1013.0
20190426084016 10 286 6.4 9.7 0.10 0.10 0.08 87 1013.0
20190426083018 10 267 3.2 6.4 0.10 0.10 0.08 86 1013.0
20190426082019 10 233 6.4 9.7 0.00 0.00 0.00 86 1013.0
20190426081018 10 225 3.2 3.2 0.00 0.00 0.00 85 1012.0
20190426080016 10 226 3.2 6.4 0.00 0.00 0.00 84 1012.0
20190426075019 10 270 4.8 8.0 0.00 0.00 0.00 83 1012.0
20190426074019 10 240 4.8 9.7 0.00 0.00 0.00 83 1012.0
20190426073116 10 264 8.0 11.3 0.00 0.00 0.00 81 1012.0
20190426072019 -17 251 8.0 9.7 0.00 0.00 0.00 1012.0
20190426071019 11 266 8.0 11.3 0.00 0.00 0.00 80 1012.0
20190426070020 -17 247 8.0 9.7 0.00 0.00 0.00 1012.0
20190426065016 -17 247 4.8 9.7 0.00 0.00 0.00 1012.0
20190426064019 11 267 8.0 11.3 0.00 0.00 0.00 80 1011.0
20190426063020 11 288 6.4 9.7 0.00 0.00 0.00 79 1012.0
20190426062020 11 274 8.0 9.7 0.00 0.00 0.00 80 1012.0
20190426061019 -17 247 8.0 8.0 0.00 0.00 0.00 1012.0
20190426060020 11 224 6.4 6.4 0.00 0.00 0.00 80 1012.0
20190426055018 11 265 4.8 8.0 0.00 0.00 0.00 81 1012.0
20190426054018 11 270 3.2 4.8 0.00 0.00 0.00 82 1011.0
20190426053020 -17 252 3.2 4.8 0.00 0.00 0.00 1011.0
20190426052020 -17 278 3.2 4.8 0.00 0.00 0.00 1011.0
20190426051020 10 256 3.2 6.4 0.00 0.00 0.00 83 1011.0
20190426050018 10 247 3.2 3.2 0.00 0.00 0.00 83 1010.0
20190426045021 10 262 3.2 3.2 0.00 0.00 0.00 83
20190426044019 10 264 3.2 4.8 0.00 0.00 0.00 83 1011.0
20190426043016 10 270 1.6 3.2 0.00 0.00 0.00 83 1011.0
20190426042019 10 248 4.8 8.0 0.00 0.00 0.00 83 1011.0
20190426041017 10 260 3.2 3.2 0.00 0.00 0.00 83 1010.0
20190426040019 10 243 1.6 1.6 0.00 0.00 0.00 83 1010.0
20190426035019 10 235 3.2 4.8 0.00 0.00 0.00 83 1010.0
20190426034020 10 237 1.6 1.6 0.00 0.00 0.00 82 1010.0
20190426033019 10 270 1.6 1.6 0.00 0.00 0.00 82 1010.0
20190426032017 10 270 0.0 1.6 0.00 0.00 0.00 82 1010.0
20190426031019 10 288 3.2 3.2 0.00 0.00 0.00 83 1010.0
20190426030019 10 270 1.6 3.2 0.00 0.00 0.00 82 1010.0
20190426025020 10 275 3.2 3.2 0.00 0.00 0.00 83 1010.0
20190426024020 10 247 4.8 4.8 0.00 0.00 0.00 83 1010.0
20190426023019 10 270 3.2 3.2 0.00 0.00 0.00 82 1010.0
20190426022018 10 247 3.2 4.8 0.00 0.00 0.00 82 1010.0
20190426021016 -17 247 1.6 1.6 0.00 0.00 0.00 1010.0
20190426020019 10 270 0.0 1.6 0.00 0.00 0.00 80 1010.0
20190426015016 10 270 0.0 1.6 0.00 0.00 0.00 79 1010.0
20190426014020 10 256 1.6 3.2 0.00 0.00 0.00 79 1009.0
20190426013019 10 247 1.6 1.6 0.00 0.00 0.00 78 1010.0
20190426012019 10 225 1.6 3.2 0.00 0.00 0.00 77 1010.0
20190426011018 10 255 1.6 1.6 0.00 0.00 0.00 76 1010.0
20190426010017 11 0.0 0.0 0.00 0.00 0.00 75 1010.0
20190426005019 11 0.0 0.0 0.00 0.00 0.00 74 1010.0
20190426004020 11 270 0.0 1.6 0.00 0.00 0.00 73 1010.0
20190426003018 11 247 0.0 3.2 0.00 0.00 0.00 72 1010.0
20190426002020 11 0.0 0.0 0.00 0.00 0.00 71 1010.0
20190426001019 12 270 1.6 3.2 0.00 0.00 0.00 70 1009.0
20190426000018 12 260 1.6 4.8 0.00 0.00 0.00 69 1009.0
20190425235019 12 247 1.6 3.2 0.00 0.00 0.00 69 1009.0
20190425234019 12 273 3.2 4.8 0.00 0.00 0.00 68 1010.0
20190425233015 12 270 0.0 1.6 0.00 0.00 0.00 67 1010.0
20190425232020 12 275 3.2 3.2 0.00 0.00 0.00 66 1010.0
20190425231020 12 292 4.8 4.8 0.00 0.00 0.00 65 1010.0
20190425230020 12 292 4.8 4.8 0.00 0.00 0.00 65 1010.0
20190425225019 12 270 3.2 3.2 0.00 0.00 0.00 64 1010.0
20190425224016 12 270 4.8 4.8 0.00 0.00 0.00 63 1010.0
20190425223019 13 270 3.2 4.8 0.00 0.00 0.00 62 1010.0
20190425222019 13 258 3.2 3.2 0.00 0.00 0.00 60 1010.0
20190425221020 13 281 4.8 4.8 0.00 0.00 0.00 58 1010.0
20190425220018 -17 265 3.2 6.4 0.00 0.00 0.00 1009.0
20190425215019 13 242 3.2 8.0 0.00 0.00 0.00 55 1009.0
20190425214021 14 263 4.8 6.4 0.00 0.00 0.00 54 1009.0
20190425213019 -17 262 9.7 11.3 0.00 0.00 0.00 1009.0
20190425212020 15 265 4.8 6.4 0.00 0.00 0.00 53 1009.0
20190425211019 15 282 6.4 9.7 0.00 0.00 0.00 52 1009.0
20190425210020 15 292 11.3 12.9 0.00 0.20 0.00 53 1009.0
20190425205020 15 270 9.7 9.7 0.00 0.20 0.00 53 1009.0
20190425204020 15 247 8.0 16.1 0.00 0.20 0.00 53 1009.0
20190425203019 15 292 9.7 11.3 0.00 0.20 0.00 51 1009.0
20190425202020 15 292 11.3 11.3 0.00 0.20 0.00 51 1009.0
20190425201019 16 273 9.7 11.3 0.00 0.20 0.00 50 1008.0
20190425200020 16 262 11.3 19.3 0.00 0.20 0.00 49 1008.0
20190425195019 16 277 9.7 17.7 0.00 0.20 0.00 48 1008.0
20190425194020 16 279 11.3 11.3 0.00 0.20 0.00 47 1008.0
20190425193019 17 302 12.9 14.5 0.00 0.20 0.00 47 1008.0
20190425192016 17 292 17.7 35.4 0.00 0.20 0.00 46 1008.0
20190425191015 18 270 20.9 38.6 0.00 0.20 0.00 46 1006.0
20190425190020 19 274 4.8 4.8 0.00 0.20 0.00 46 1006.0
20190425185019 18 270 3.2 6.4 0.00 0.20 0.00 47 1006.0
20190425184019 19 0.0 0.0 0.00 0.20 0.00 46 1006.0
20190425183020 20 22 0.0 3.2 0.00 0.20 0.00 44 1006.0
20190425182019 -17 0.0 0.0 0.00 0.20 0.00 1006.0
20190425181019 20 0.0 0.0 0.00 0.20 0.00 42 1006.0
20190425180016 21 0.0 0.0 0.00 0.20 0.00 40 1005.0
20190425175019 -17 112 0.0 1.6 0.00 0.20 0.00 1005.0
20190425174019 22 94 3.2 3.2 0.00 0.20 0.00 38 1005.0
20190425173020 22 82 3.2 4.8 0.00 0.20 0.00 38 1006.0
20190425172019 22 104 6.4 9.7 0.00 0.20 0.00 38 1006.0
20190425171019 22 129 4.8 4.8 0.00 0.20 0.00 39 1006.0
20190425170019 21 123 6.4 8.0 0.00 0.20 0.00 39 1006.0
20190425165032 21 103 3.2 4.8 0.00 0.20 0.00 39 1006.0
20190425164019 21 76 3.2 3.2 0.00 0.20 0.00 39 1005.0
20190425163019 21 98 4.8 6.4 0.00 0.20 0.00 38 1006.0
20190425162024 21 132 3.2 11.3 0.00 0.20 0.00 38 1006.0
20190425161019 21 107 6.4 9.7 0.00 0.20 0.00 38 1006.0
20190425160019 21 125 6.4 8.0 0.00 0.20 0.00 38 1006.0
20190425155018 21 103 8.0 9.7 0.00 0.20 0.00 37 1006.0
20190425154018 22 123 4.8 4.8 0.00 0.20 0.00 37 1006.0
20190425153019 22 67 4.8 9.7 0.00 0.20 0.00 38 1007.0
20190425152019 22 90 4.8 8.0 0.00 0.20 0.00 37 1007.0
20190425151016 21 103 6.4 9.7 0.00 0.20 0.00 37 1007.0
20190425150017 21 95 4.8 6.4 0.00 0.20 0.00 37 1007.0
20190425145019 21 119 8.0 14.5 0.00 0.20 0.00 37 1007.0
20190425143016 21 100 6.4 9.7 0.00 0.20 0.00 36 1007.0
20190425142019 21 108 8.0 9.7 0.00 0.20 0.00 36 1007.0
20190425141020 21 128 6.4 9.7 0.00 0.20 0.00 35 1008.0
20190425140020 21 148 9.7 9.7 0.00 0.20 0.00 35 1008.0
20190425135020 22 166 6.4 8.0 0.00 0.20 0.00 35 1008.0
20190425134016 -17 150 8.0 9.7 0.00 0.20 0.00 1007.0
20190425133020 21 127 9.7 11.3 0.00 0.20 0.00 36 1007.0
20190425132019 21 176 11.3 12.9 0.00 0.20 0.00 36 1007.0
20190425131020 -17 165 9.7 16.1 0.00 0.20 0.00 1008.0
20190425130024 22 151 14.5 14.5 0.00 0.20 0.00 36 1008.0
20190425125020 22 116 9.7 32.2 0.00 0.20 0.00 37 1008.0
20190425124020 21 148 14.5 20.9 0.00 0.20 0.00 38 1008.0
20190425123019 21 139 12.9 12.9 0.00 0.20 0.00 39 1008.0
20190425122018 21 112 12.9 12.9 0.00 0.20 0.00 39 1008.0
20190425121016 21 161 12.9 16.1 0.00 0.20 0.00 39 1008.0
20190425120020 20 148 14.5 19.3 0.00 0.20 0.00 40 1008.0
20190425115020 -17 151 6.4 19.3 0.00 0.20 0.00 1008.0
20190425114021 20 157 16.1 19.3 0.00 0.20 0.00 42 1009.0
20190425113017 19 194 11.3 11.3 0.00 0.20 0.00 42 1009.0
20190425112020 19 170 11.3 11.3 0.00 0.20 0.00 42 1009.0
20190425111018 18 157 12.9 16.1 0.00 0.20 0.00 43 1009.0
20190425110020 18 167 11.3 11.3 0.00 0.20 0.00 43 1009.0
20190425105019 18 173 14.5 19.3 0.00 0.20 0.00 43
20190425104020 18 176 16.1 27.4 0.00 0.20 0.00 44 1009.0
20190425103016 18 166 8.0 19.3 0.00 0.20 0.00 44 1009.0
20190425102019 17 189 14.5 14.5 0.00 0.20 0.00 45 1009.0
20190425101020 17 171 6.4 9.7 0.00 0.20 0.00 45 1009.0
20190425100017 17 195 8.0 12.9 0.00 0.20 0.00 45 1009.0